Time;durP1;ratioP1;P1;durP2;ratioP2;P2;SDS_P1;SDS_P2;PMS_P1;PMS_P2;Temp;Humidity;BMP_temperature;BMP_pressure;BME280_temperature;BME280_humidity;BME280_pressure;Samples;Min_cycle;Max_cycle;Signal;HPM_P1;HPM_P2
2023/03/14 00:01:56;;;;;;;10.00;2.58;;;;;;;12.96;100.00;98889.34;5214032;28;20030;-74
2023/03/14 00:04:27;;;;;;;7.18;2.00;;;;;;;12.94;100.00;98888.69;5213565;28;20025;-73
2023/03/14 00:06:59;;;;;;;6.47;2.03;;;;;;;12.86;100.00;98887.03;5213395;28;20076;-73
2023/03/14 00:09:30;;;;;;;9.02;2.15;;;;;;;12.85;100.00;98888.06;5213819;28;20025;-73
2023/03/14 00:12:02;;;;;;;8.85;2.45;;;;;;;12.81;100.00;98887.63;5214582;28;20030;-73
2023/03/14 00:14:34;;;;;;;6.18;1.70;;;;;;;12.84;100.00;98884.63;5214796;28;20072;-72
2023/03/14 00:17:05;;;;;;;8.23;1.70;;;;;;;12.68;100.00;98882.25;5212562;28;20430;-73
2023/03/14 00:19:36;;;;;;;6.72;1.58;;;;;;;12.69;100.00;98883.06;5213318;28;20040;-73
2023/03/14 00:22:08;;;;;;;6.43;1.33;;;;;;;12.69;100.00;98896.22;5213410;28;20034;-74
2023/03/14 00:24:39;;;;;;;7.03;1.20;;;;;;;12.63;100.00;98917.00;5212867;28;20083;-73
2023/03/14 00:27:10;;;;;;;7.55;1.65;;;;;;;12.60;100.00;98911.31;5213311;28;20026;-73
2023/03/14 00:29:42;;;;;;;7.45;1.67;;;;;;;12.49;100.00;98915.25;5213422;28;20042;-74
2023/03/14 00:32:14;;;;;;;5.47;1.40;;;;;;;12.59;100.00;98915.75;5212716;28;20072;-73
2023/03/14 00:34:45;;;;;;;8.60;1.80;;;;;;;12.53;100.00;98911.25;5213969;28;20034;-74
2023/03/14 00:37:16;;;;;;;6.75;1.70;;;;;;;12.61;100.00;98918.19;5212060;28;20032;-73
2023/03/14 00:39:48;;;;;;;5.63;1.38;;;;;;;12.59;100.00;98921.00;5214081;28;20392;-73
2023/03/14 00:42:19;;;;;;;7.38;1.65;;;;;;;12.61;100.00;98923.44;5211286;28;20034;-73
2023/03/14 00:44:50;;;;;;;6.85;1.58;;;;;;;12.57;100.00;98906.44;5212520;28;20071;-73
2023/03/14 00:47:21;;;;;;;7.75;1.60;;;;;;;12.52;100.00;98912.25;5213639;28;20029;-75
2023/03/14 00:49:53;;;;;;;5.82;1.48;;;;;;;12.53;100.00;98920.94;5213202;28;20036;-74
2023/03/14 00:52:24;;;;;;;7.65;1.60;;;;;;;12.50;100.00;98926.56;5212767;28;20038;-74
2023/03/14 00:54:55;;;;;;;8.75;2.05;;;;;;;12.53;100.00;98911.25;5213765;28;20038;-73
2023/03/14 00:57:27;;;;;;;7.28;1.92;;;;;;;12.49;100.00;98903.94;5212076;28;20139;-73
2023/03/14 00:59:58;;;;;;;5.32;1.50;;;;;;;12.53;100.00;98915.69;5212780;28;20026;-74
2023/03/14 01:02:29;;;;;;;7.40;1.75;;;;;;;12.46;100.00;98904.31;5212337;28;20037;-74
2023/03/14 01:05:01;;;;;;;5.65;1.38;;;;;;;12.43;100.00;98909.97;5213090;28;20111;-74
2023/03/14 01:07:32;;;;;;;5.60;1.52;;;;;;;12.44;100.00;98911.59;5212418;28;20023;-73
2023/03/14 01:10:05;;;;;;;6.00;1.35;;;;;;;12.36;100.00;98904.66;5214003;28;20025;-73
2023/03/14 01:12:36;;;;;;;5.90;1.40;;;;;;;12.39;100.00;98906.91;5213173;28;20030;-74
2023/03/14 01:15:08;;;;;;;6.13;1.50;;;;;;;12.43;100.00;98916.03;5212638;28;20475;-73
2023/03/14 01:17:40;;;;;;;5.78;1.67;;;;;;;12.41;100.00;98897.00;5212223;28;20483;-73
2023/03/14 01:20:13;;;;;;;6.15;1.58;;;;;;;12.44;100.00;98901.88;5212674;28;20034;-74
2023/03/14 01:22:44;;;;;;;4.25;1.10;;;;;;;12.34;100.00;98902.19;5211990;28;20034;-73
2023/03/14 01:25:17;;;;;;;5.95;1.13;;;;;;;12.35;100.00;98895.97;5212620;28;20387;-74
2023/03/14 01:27:48;;;;;;;5.53;1.80;;;;;;;12.34;100.00;98902.19;5214153;28;20057;-73
2023/03/14 01:30:19;;;;;;;4.70;1.45;;;;;;;12.36;100.00;98889.72;5212101;28;20054;-73
2023/03/14 01:32:50;;;;;;;5.65;1.40;;;;;;;12.32;100.00;98893.72;5212515;28;20021;-74
2023/03/14 01:35:22;;;;;;;5.30;1.10;;;;;;;12.34;100.00;98896.94;5213856;28;20503;-73
2023/03/14 01:37:53;;;;;;;6.72;1.60;;;;;;;12.33;100.00;98884.84;5212896;28;20025;-74
2023/03/14 01:40:25;;;;;;;4.82;1.08;;;;;;;12.36;100.00;98878.41;5211009;28;20017;-73
2023/03/14 01:42:58;;;;;;;7.03;1.38;;;;;;;12.30;100.00;98868.63;5212587;28;20838;-72
2023/03/14 01:46:06;;;;;;;7.63;1.65;;;;;;;12.51;100.00;98883.56;5213167;28;20037;-73
2023/03/14 01:48:47;;;;;;;7.00;1.60;;;;;;;12.35;100.00;98869.72;5214011;28;20472;-73
2023/03/14 01:51:25;;;;;;;6.15;1.42;;;;;;;12.27;100.00;98864.56;5212419;28;20510;-73
2023/03/14 01:54:06;;;;;;;7.22;1.65;;;;;;;12.34;100.00;98859.38;5214350;28;20042;-73
2023/03/14 01:56:41;;;;;;;6.90;1.95;;;;;;;12.22;100.00;98851.22;5212983;28;20126;-74
2023/03/14 01:59:13;;;;;;;11.90;1.90;;;;;;;12.14;100.00;98860.03;5212961;28;20045;-74
2023/03/14 02:01:47;;;;;;;6.35;1.65;;;;;;;12.27;100.00;98850.63;5213547;28;20022;-73
2023/03/14 02:04:20;;;;;;;7.95;1.77;;;;;;;12.18;100.00;98849.97;5212895;28;20026;-73
2023/03/14 02:07:08;;;;;;;7.47;1.67;;;;;;;12.23;100.00;98850.19;5211822;28;20460;-74
2023/03/14 02:09:41;;;;;;;5.90;1.67;;;;;;;12.07;100.00;98847.84;5212171;28;20559;-73
2023/03/14 02:12:17;;;;;;;6.82;2.03;;;;;;;12.17;100.00;98848.34;5213925;28;20025;-73
2023/03/14 02:14:48;;;;;;;6.50;2.00;;;;;;;12.13;100.00;98839.22;5213289;28;20105;-73
2023/03/14 02:17:22;;;;;;;8.32;2.45;;;;;;;12.15;100.00;98850.34;5217642;28;20148;-74
2023/03/14 02:20:09;;;;;;;8.55;2.03;;;;;;;12.22;100.00;98843.34;5212040;28;20075;-74
2023/03/14 02:22:44;;;;;;;8.65;2.17;;;;;;;12.16;100.00;98846.72;5216035;28;20034;-73
2023/03/14 02:25:24;;;;;;;9.82;2.03;;;;;;;12.29;100.00;98844.19;5217216;28;20033;-73
2023/03/14 02:27:57;;;;;;;9.73;1.80;;;;;;;12.12;100.00;98835.81;5217447;28;20041;-73
2023/03/14 02:30:31;;;;;;;9.37;2.37;;;;;;;12.12;100.00;98845.47;5216616;28;20033;-72
2023/03/14 02:33:15;;;;;;;9.63;2.20;;;;;;;12.21;100.00;98833.03;5214839;28;20410;-73
2023/03/14 02:35:52;;;;;;;6.97;1.67;;;;;;;12.08;100.00;98824.03;5217466;28;20030;-73
2023/03/14 02:38:36;;;;;;;8.63;1.98;;;;;;;12.00;100.00;98821.53;5216191;28;20150;-74
2023/03/14 02:41:07;;;;;;;;;;;;;;;12.47;100.00;98825.34;5217076;28;20054;-74
2023/03/14 02:43:38;;;;;;;8.77;1.97;;;;;;;11.98;100.00;98822.75;5216189;28;19960;-73
2023/03/14 02:46:16;;;;;;;10.38;2.25;;;;;;;12.10;100.00;98823.84;5217692;28;20327;-73
2023/03/14 02:48:53;;;;;;;7.80;1.63;;;;;;;11.94;100.00;98822.31;5217187;28;20397;-73
2023/03/14 02:51:26;;;;;;;5.93;2.28;;;;;;;12.01;100.00;98823.19;5215418;28;20030;-74
2023/03/14 02:53:57;;;;;;;8.02;1.98;;;;;;;12.08;100.00;98825.84;5217873;28;20093;-74
2023/03/14 02:56:28;;;;;;;9.30;2.50;;;;;;;12.05;100.00;98826.25;5217194;28;20571;-73
2023/03/14 02:59:03;;;;;;;7.72;1.85;;;;;;;12.06;100.00;98827.88;5215298;28;20357;-73
2023/03/14 03:01:34;;;;;;;9.25;2.25;;;;;;;12.02;100.00;98824.00;5216728;28;20391;-73
2023/03/14 03:04:05;;;;;;;10.65;2.58;;;;;;;12.04;100.00;98837.72;5215651;28;20029;-74
2023/03/14 03:06:37;;;;;;;8.55;2.08;;;;;;;12.09;100.00;98830.13;5217205;28;20372;-73
2023/03/14 03:09:08;;;;;;;9.35;2.10;;;;;;;12.02;100.00;98824.00;5216625;28;20034;-73
2023/03/14 03:11:39;;;;;;;8.43;2.13;;;;;;;12.05;100.00;98842.81;5216466;28;20061;-74
2023/03/14 03:14:11;;;;;;;9.70;1.73;;;;;;;12.02;100.00;98845.78;5214492;28;20038;-72
2023/03/14 03:16:42;;;;;;;9.80;2.42;;;;;;;11.99;100.00;98840.91;5216719;28;20502;-73
2023/03/14 03:19:14;;;;;;;6.25;1.70;;;;;;;12.05;100.00;98842.00;5216248;28;20049;-74
2023/03/14 03:21:45;;;;;;;9.98;1.90;;;;;;;12.04;100.00;98835.09;5215940;28;20041;-74
2023/03/14 03:24:16;;;;;;;7.82;1.90;;;;;;;12.02;100.00;98819.56;5216555;28;20025;-74
2023/03/14 03:26:47;;;;;;;5.28;1.73;;;;;;;12.02;100.00;98818.75;5215351;28;20037;-74
2023/03/14 03:29:19;;;;;;;9.02;1.90;;;;;;;11.95;100.00;98823.13;5216007;28;20029;-73
2023/03/14 03:31:50;;;;;;;6.68;1.83;;;;;;;12.02;100.00;98822.19;5215128;28;20064;-73
2023/03/14 03:34:21;;;;;;;7.15;1.60;;;;;;;11.93;100.00;98818.03;5216202;28;20038;-73
2023/03/14 03:36:56;;;;;;;7.03;1.85;;;;;;;12.03;100.00;98823.78;5216178;28;20053;-73
2023/03/14 03:39:27;;;;;;;7.72;1.95;;;;;;;11.93;100.00;98824.13;5214563;28;20030;-72
2023/03/14 03:41:58;;;;;;;9.85;2.10;;;;;;;12.05;100.00;98813.13;5215814;28;20037;-74
2023/03/14 03:44:30;;;;;;;8.38;1.38;;;;;;;12.06;100.00;98812.91;5212704;28;20448;-72
2023/03/14 03:47:01;;;;;;;9.07;1.70;;;;;;;11.87;100.00;98817.00;5217026;28;20131;-74
2023/03/14 03:49:33;;;;;;;5.40;1.40;;;;;;;11.99;100.00;98803.38;5216642;28;20088;-73
2023/03/14 03:52:04;;;;;;;7.70;1.95;;;;;;;12.06;100.00;98809.50;5215731;28;20033;-74
2023/03/14 03:54:36;;;;;;;4.20;1.40;;;;;;;11.99;100.00;98806.81;5217010;28;20057;-73
2023/03/14 03:57:07;;;;;;;5.13;1.17;;;;;;;12.00;100.00;98807.59;5214747;28;20034;-73
2023/03/14 03:59:40;;;;;;;6.03;1.52;;;;;;;12.00;100.00;98807.59;5216435;28;20057;-73
2023/03/14 04:02:11;;;;;;;6.35;1.27;;;;;;;11.96;100.00;98803.75;5216444;28;20037;-73
2023/03/14 04:04:42;;;;;;;6.57;1.65;;;;;;;11.89;100.00;98803.69;5216422;28;20026;-74
2023/03/14 04:07:14;;;;;;;7.35;1.67;;;;;;;11.86;100.00;98810.13;5215478;28;20032;-74
2023/03/14 04:09:46;;;;;;;9.30;1.67;;;;;;;11.83;100.00;98800.00;5216336;28;20112;-74
2023/03/14 04:12:17;;;;;;;5.28;1.38;;;;;;;11.87;100.00;98797.81;5215013;28;20033;-74
2023/03/14 04:14:48;;;;;;;4.82;1.40;;;;;;;11.78;100.00;98794.50;5213979;28;20471;-73
2023/03/14 04:17:19;;;;;;;4.90;1.25;;;;;;;11.71;100.00;98796.25;5215813;28;20037;-74
2023/03/14 04:19:53;;;;;;;8.52;2.33;;;;;;;11.69;100.00;98798.22;5215070;28;20065;-74
2023/03/14 04:22:24;;;;;;;4.68;1.40;;;;;;;11.68;100.00;98794.78;5216038;28;20492;-73
2023/03/14 04:24:56;;;;;;;5.07;1.50;;;;;;;11.63;100.00;98797.19;5215511;28;20052;-74
2023/03/14 04:27:27;;;;;;;5.13;1.35;;;;;;;11.62;100.00;98789.47;5213869;28;20117;-74
2023/03/14 04:29:58;;;;;;;5.38;1.73;;;;;;;11.63;100.00;98788.47;5215109;28;20025;-74
2023/03/14 04:32:29;;;;;;;5.18;1.35;;;;;;;11.55;100.00;98797.28;5213895;28;20029;-74
2023/03/14 04:35:01;;;;;;;4.20;1.30;;;;;;;11.62;100.00;98802.59;5214793;28;20025;-74
2023/03/14 04:37:32;;;;;;;4.45;1.35;;;;;;;11.58;100.00;98798.72;5215467;28;20071;-74
2023/03/14 04:40:06;;;;;;;3.80;1.30;;;;;;;11.51;100.00;98788.16;5214414;28;20033;-73
2023/03/14 04:42:37;;;;;;;4.03;1.23;;;;;;;11.53;100.00;98793.22;5215110;28;20022;-73
2023/03/14 04:45:08;;;;;;;3.58;0.82;;;;;;;11.58;100.00;98789.03;5216287;28;20381;-74
2023/03/14 04:47:40;;;;;;;3.22;1.02;;;;;;;11.57;100.00;98786.63;5215288;28;20431;-73
2023/03/14 04:50:11;;;;;;;5.70;1.25;;;;;;;11.55;100.00;98793.84;5216193;28;20129;-74
2023/03/14 04:52:42;;;;;;;3.78;0.98;;;;;;;11.55;100.00;98791.22;5215330;28;20028;-73
2023/03/14 04:55:14;;;;;;;3.95;1.27;;;;;;;11.47;100.00;98796.59;5213927;28;20026;-73
2023/03/14 04:57:45;;;;;;;3.28;1.48;;;;;;;11.33;100.00;98785.16;5215312;28;20033;-73
2023/03/14 05:00:20;;;;;;;2.42;1.05;;;;;;;11.42;100.00;98799.78;5215143;28;20068;-73
2023/03/14 05:02:51;;;;;;;3.88;1.38;;;;;;;11.29;100.00;98792.59;5215362;28;20120;-74
2023/03/14 05:05:22;;;;;;;4.82;1.40;;;;;;;11.26;100.00;98800.00;5215847;28;20116;-73
2023/03/14 05:07:54;;;;;;;4.05;1.15;;;;;;;11.28;100.00;98798.00;5215106;28;20034;-74
2023/03/14 05:10:25;;;;;;;4.50;1.38;;;;;;;11.25;100.00;98791.34;5214507;28;20026;-73
2023/03/14 05:12:56;;;;;;;2.78;0.93;;;;;;;11.23;100.00;98788.06;5215708;28;20048;-73
2023/03/14 05:15:28;;;;;;;5.05;1.60;;;;;;;11.15;100.00;98793.44;5215384;28;20032;-73
2023/03/14 05:17:59;;;;;;;5.07;1.60;;;;;;;11.11;100.00;98790.34;5215420;28;20025;-73
2023/03/14 05:20:30;;;;;;;3.58;0.90;;;;;;;11.08;100.00;98789.91;5215844;28;20026;-73
2023/03/14 05:23:02;;;;;;;5.95;1.50;;;;;;;11.03;100.00;98787.03;5215279;28;20087;-74
2023/03/14 05:25:33;;;;;;;5.18;1.70;;;;;;;11.08;100.00;98784.66;5215235;28;20033;-73
2023/03/14 05:28:04;;;;;;;4.07;1.23;;;;;;;11.17;100.00;98784.41;5213907;28;20021;-73
2023/03/14 05:30:36;;;;;;;4.82;1.50;;;;;;;11.15;100.00;98783.75;5215226;28;20022;-73
2023/03/14 05:33:07;;;;;;;6.65;1.60;;;;;;;11.15;100.00;98770.66;5215735;28;20033;-74
2023/03/14 05:35:38;;;;;;;3.97;1.83;;;;;;;11.08;100.00;98759.28;5215232;28;20029;-73
2023/03/14 05:38:09;;;;;;;6.70;1.98;;;;;;;11.15;100.00;98765.41;5213929;28;20037;-74
2023/03/14 05:40:41;;;;;;;4.22;1.70;;;;;;;11.13;100.00;98771.81;5213833;28;20547;-73
2023/03/14 05:43:13;;;;;;;2.78;1.45;;;;;;;11.16;100.00;98774.06;5215030;28;20439;-73
2023/03/14 05:45:44;;;;;;;4.45;1.60;;;;;;;11.07;100.00;98760.28;5213731;28;20025;-73
2023/03/14 05:48:16;;;;;;;5.03;1.95;;;;;;;11.07;100.00;98762.09;5214341;28;20143;-74
2023/03/14 05:50:48;;;;;;;6.07;2.33;;;;;;;11.01;100.00;98750.53;5218133;28;20539;-73
2023/03/14 05:53:19;;;;;;;5.63;1.92;;;;;;;11.14;100.00;98765.59;5217763;28;20124;-73
2023/03/14 05:55:52;;;;;;;5.00;2.20;;;;;;;11.14;100.00;98766.41;5218709;28;20026;-73
2023/03/14 05:58:24;;;;;;;;;;;;;;;11.78;100.00;98759.56;5219634;28;20030;-73
2023/03/14 06:00:55;;;;;;;5.55;1.80;;;;;;;11.22;100.00;98764.69;5219479;28;20043;-73
2023/03/14 06:03:26;;;;;;;5.13;2.10;;;;;;;11.20;100.00;98747.31;5217861;28;20037;-73
2023/03/14 06:05:58;;;;;;;6.57;2.33;;;;;;;11.17;100.00;98752.94;5218610;28;20026;-73
2023/03/14 06:08:29;;;;;;;4.38;2.20;;;;;;;11.18;100.00;98759.81;5219031;28;20041;-73
2023/03/14 06:11:03;;;;;;;5.00;2.05;;;;;;;11.21;100.00;98753.34;5218120;28;20108;-73
2023/03/14 06:13:34;;;;;;;4.18;2.20;;;;;;;11.11;100.00;98756.28;5218324;28;20438;-74
2023/03/14 06:16:06;;;;;;;4.78;2.00;;;;;;;11.16;100.00;98767.03;5217980;28;20030;-73
2023/03/14 06:18:37;;;;;;;6.03;1.92;;;;;;;11.15;100.00;98761.97;5218732;28;20026;-74
2023/03/14 06:21:09;;;;;;;4.40;2.00;;;;;;;11.12;100.00;98754.47;5218117;28;20033;-73
2023/03/14 06:23:40;;;;;;;6.47;2.63;;;;;;;11.14;100.00;98763.78;5217636;28;20026;-73
2023/03/14 06:26:12;;;;;;;4.47;2.33;;;;;;;11.18;100.00;98754.56;5217677;28;20540;-73
2023/03/14 06:28:43;;;;;;;6.28;2.90;;;;;;;11.18;100.00;98751.13;5218717;28;20435;-74
2023/03/14 06:31:14;;;;;;;3.67;2.10;;;;;;;11.21;100.00;98758.59;5217214;28;20036;-73
2023/03/14 06:33:46;;;;;;;6.35;2.90;;;;;;;11.18;100.00;98764.22;5217941;28;20586;-72
2023/03/14 06:36:17;;;;;;;5.15;2.63;;;;;;;11.26;100.00;98769.34;5217907;28;20130;-73
2023/03/14 06:38:48;;;;;;;6.68;3.05;;;;;;;11.19;100.00;98777.16;5218633;28;20025;-73
2023/03/14 06:41:19;;;;;;;5.53;2.70;;;;;;;11.27;100.00;98781.47;5218503;28;20038;-72
2023/03/14 06:43:51;;;;;;;5.95;2.83;;;;;;;11.31;100.00;98776.66;5216517;28;20113;-73
2023/03/14 06:46:22;;;;;;;5.00;2.92;;;;;;;11.34;100.00;98774.47;5213294;28;20537;-73
2023/03/14 06:48:54;;;;;;;4.30;2.85;;;;;;;11.42;100.00;98774.34;5215592;28;20054;-72
2023/03/14 06:51:25;;;;;;;5.78;2.75;;;;;;;11.39;100.00;98772.09;5216929;28;20026;-73
2023/03/14 06:53:56;;;;;;;4.70;2.42;;;;;;;11.45;100.00;98781.84;5217340;28;20032;-73
2023/03/14 06:56:28;;;;;;;5.65;2.65;;;;;;;11.54;100.00;98779.13;5218121;28;20265;-73
2023/03/14 06:58:59;;;;;;;4.32;2.63;;;;;;;11.57;100.00;98784.81;5217320;28;20040;-72
2023/03/14 07:01:32;;;;;;;2.92;2.30;;;;;;;11.61;100.00;98785.25;5217492;28;20051;-72
2023/03/14 07:04:03;;;;;;;6.65;3.08;;;;;;;11.59;100.00;98777.56;5218119;28;20029;-72
2023/03/14 07:06:35;;;;;;;5.15;2.60;;;;;;;11.59;100.00;98793.31;5212802;28;20052;-72
2023/03/14 07:09:06;;;;;;;6.00;2.97;;;;;;;11.54;100.00;98785.16;5217468;28;20026;-72
2023/03/14 07:11:37;;;;;;;3.92;2.47;;;;;;;11.52;100.00;98792.44;5217846;28;20395;-72
2023/03/14 07:14:12;;;;;;;5.68;3.08;;;;;;;11.57;100.00;98799.72;5217177;28;20038;-73
2023/03/14 07:16:43;;;;;;;5.22;3.15;;;;;;;11.56;100.00;98808.59;5217314;28;20041;-72
2023/03/14 07:19:14;;;;;;;5.07;3.03;;;;;;;11.53;100.00;98814.22;5217070;28;20026;-73
2023/03/14 07:21:46;;;;;;;6.68;2.80;;;;;;;11.51;100.00;98821.44;5217945;28;20030;-73
2023/03/14 07:24:17;;;;;;;5.15;2.80;;;;;;;11.48;100.00;98835.75;5215931;28;20760;-72
2023/03/14 07:26:48;;;;;;;6.30;3.15;;;;;;;11.43;100.00;98862.50;5216337;28;20025;-72
2023/03/14 07:29:20;;;;;;;4.55;2.83;;;;;;;11.22;100.00;98896.53;5217034;28;20038;-72
2023/03/14 07:31:51;;;;;;;1.73;1.10;;;;;;;10.92;100.00;98916.69;5216763;28;20499;-72
2023/03/14 07:34:22;;;;;;;1.38;0.70;;;;;;;10.78;100.00;98926.16;5218682;28;20026;-72
2023/03/14 07:36:53;;;;;;;2.33;0.90;;;;;;;10.56;100.00;98930.44;5217013;28;20068;-72
2023/03/14 07:39:25;;;;;;;1.33;0.60;;;;;;;10.43;100.00;98946.75;5215655;28;20457;-72
2023/03/14 07:41:56;;;;;;;1.35;0.60;;;;;;;10.29;100.00;98957.16;5216837;28;20463;-72
2023/03/14 07:44:27;;;;;;;1.85;0.70;;;;;;;10.17;100.00;98969.81;5216674;28;20100;-73
2023/03/14 07:46:59;;;;;;;1.83;0.60;;;;;;;9.88;100.00;98963.41;5215761;28;20037;-72
2023/03/14 07:49:30;;;;;;;1.67;0.57;;;;;;;9.84;100.00;98987.47;5217024;28;20061;-73
2023/03/14 07:52:01;;;;;;;2.08;0.60;;;;;;;9.71;100.00;98988.03;5217238;28;20049;-72
2023/03/14 07:54:33;;;;;;;1.23;0.60;;;;;;;9.77;100.00;99004.81;5215949;28;20064;-72
2023/03/14 07:57:04;;;;;;;1.65;0.88;;;;;;;9.68;100.00;99015.31;5215939;28;20351;-72
2023/03/14 07:59:35;;;;;;;2.65;1.00;;;;;;;9.67;100.00;99020.72;5216754;28;20479;-72
2023/03/14 08:02:11;;;;;;;3.53;1.55;;;;;;;9.62;100.00;99023.00;5215899;28;20368;-72
2023/03/14 08:04:43;;;;;;;2.58;1.20;;;;;;;9.65;100.00;99036.56;5216947;28;20491;-72
2023/03/14 08:07:14;;;;;;;3.35;1.60;;;;;;;9.58;100.00;99034.78;5215434;28;20144;-72
2023/03/14 08:09:45;;;;;;;3.88;1.73;;;;;;;9.55;100.00;99040.38;5216701;28;20037;-72
2023/03/14 08:12:17;;;;;;;2.70;1.42;;;;;;;9.58;100.00;99060.94;5216334;28;20030;-73
2023/03/14 08:14:48;;;;;;;4.28;1.30;;;;;;;9.53;100.00;99077.13;5214994;28;20045;-72
2023/03/14 08:17:19;;;;;;;5.15;1.70;;;;;;;9.39;100.00;99081.22;5215865;28;20395;-72
2023/03/14 08:19:53;;;;;;;2.88;1.33;;;;;;;9.42;100.00;99098.38;5213796;28;20415;-72
2023/03/14 08:22:27;;;;;;;2.53;0.90;;;;;;;9.40;100.00;99113.44;5215362;28;20037;-72
2023/03/14 08:24:58;;;;;;;2.95;1.05;;;;;;;9.35;100.00;99119.13;5216050;28;20025;-72
2023/03/14 08:27:29;;;;;;;3.15;0.90;;;;;;;9.32;100.00;99129.94;5215079;28;20038;-72
2023/03/14 08:30:01;;;;;;;2.97;0.70;;;;;;;9.41;100.00;99133.34;5215277;28;20164;-72
2023/03/14 08:32:32;;;;;;;2.17;0.88;;;;;;;9.38;100.00;99131.88;5212880;28;20026;-73
2023/03/14 08:35:05;;;;;;;2.75;0.70;;;;;;;9.53;100.00;99152.94;5215795;28;20604;-72
2023/03/14 08:37:36;;;;;;;3.92;1.10;;;;;;;9.51;100.00;99168.00;5214615;28;20125;-72
2023/03/14 08:40:10;;;;;;;3.53;0.80;;;;;;;9.52;100.00;99163.59;5213881;28;20156;-73
2023/03/14 08:42:46;;;;;;;;;;;;;;;10.01;100.00;99174.78;5213341;28;20045;-72
2023/03/14 08:45:24;;;;;;;5.80;1.50;;;;;;;9.65;100.00;99184.78;5214864;28;19918;-72
2023/03/14 08:47:57;;;;;;;6.30;2.08;;;;;;;9.54;100.00;99198.19;5214808;28;20081;-72
2023/03/14 08:50:28;;;;;;;6.00;2.00;;;;;;;9.48;100.00;99200.50;5214983;28;20396;-72
2023/03/14 08:53:00;;;;;;;6.40;2.10;;;;;;;9.47;100.00;99204.09;5216399;28;20018;-72
2023/03/14 08:55:31;;;;;;;5.03;1.60;;;;;;;9.44;100.00;99214.06;5216152;28;20061;-72
2023/03/14 08:58:03;;;;;;;6.53;1.50;;;;;;;9.42;100.00;99214.22;5214510;28;20029;-73
2023/03/14 09:00:34;;;;;;;4.15;1.50;;;;;;;9.57;100.00;99239.72;5215067;28;20025;-72
2023/03/14 09:03:05;;;;;;;4.47;1.40;;;;;;;9.58;100.00;99231.69;5215672;28;20025;-73
2023/03/14 09:05:37;;;;;;;5.00;1.70;;;;;;;9.56;100.00;99244.13;5215643;28;20096;-73
2023/03/14 09:08:08;;;;;;;5.18;1.73;;;;;;;9.62;100.00;99253.94;5214730;28;20034;-73
2023/03/14 09:10:39;;;;;;;7.82;1.50;;;;;;;9.60;100.00;99245.44;5214270;28;20491;-72
2023/03/14 09:13:11;;;;;;;3.95;1.38;;;;;;;9.74;100.00;99275.34;5215873;28;20498;-73
2023/03/14 09:15:42;;;;;;;3.45;1.42;;;;;;;9.65;100.00;99278.94;5214850;28;20149;-72
2023/03/14 09:18:13;;;;;;;4.88;1.30;;;;;;;9.66;100.00;99297.09;5214466;28;20124;-72
2023/03/14 09:20:44;;;;;;;4.35;1.30;;;;;;;9.80;100.00;99300.84;5215448;28;20032;-72
2023/03/14 09:23:16;;;;;;;4.85;1.40;;;;;;;9.79;100.00;99295.78;5215202;28;20105;-72
2023/03/14 09:25:47;;;;;;;3.70;1.27;;;;;;;9.86;100.00;99309.84;5215100;28;20032;-72
2023/03/14 09:28:18;;;;;;;4.60;1.13;;;;;;;9.84;100.00;99317.03;5214675;28;20057;-73
2023/03/14 09:30:50;;;;;;;3.35;1.13;;;;;;;9.78;100.00;99341.22;5215221;28;20053;-73
2023/03/14 09:33:21;;;;;;;3.70;1.13;;;;;;;9.55;100.00;99344.47;5215648;28;20041;-72
2023/03/14 09:35:53;;;;;;;1.75;0.88;;;;;;;9.47;100.00;99355.72;5215194;28;20037;-72
2023/03/14 09:38:24;;;;;;;3.03;0.70;;;;;;;9.44;100.00;99366.50;5214456;28;20038;-71
2023/03/14 09:40:59;;;;;;;2.42;0.63;;;;;;;9.37;100.00;99402.06;5213711;28;20438;-71
2023/03/14 09:43:33;;;;;;;1.45;0.40;;;;;;;9.14;100.00;99416.69;5210887;28;20072;-72
2023/03/14 09:46:05;;;;;;;3.30;0.60;;;;;;;8.99;100.00;99427.69;5212831;28;20026;-72
2023/03/14 09:48:36;;;;;;;1.50;0.50;;;;;;;9.00;100.00;99447.59;5215156;28;20069;-73
2023/03/14 09:51:14;;;;;;;2.40;0.60;;;;;;;8.93;100.00;99459.66;5213181;28;20033;-73
2023/03/14 09:53:48;;;;;;;1.80;0.50;;;;;;;8.61;100.00;99483.75;5214748;28;20426;-72
2023/03/14 09:56:22;;;;;;;2.00;0.50;;;;;;;8.38;100.00;99480.78;5213848;28;20033;-73
2023/03/14 09:58:59;;;;;;;2.50;0.40;;;;;;;8.52;100.00;99505.50;5213959;28;20030;-73
2023/03/14 10:01:33;;;;;;;1.55;0.45;;;;;;;8.41;100.00;99501.34;5214006;28;20065;-73
2023/03/14 10:04:13;;;;;;;2.03;0.52;;;;;;;8.48;100.00;99523.25;5214382;28;20108;-73
2023/03/14 10:06:44;;;;;;;3.70;0.80;;;;;;;8.50;100.00;99531.78;5213825;28;20061;-73
2023/03/14 10:09:25;;;;;;;1.27;0.50;;;;;;;8.78;100.00;99545.56;5214118;28;20104;-72
2023/03/14 10:11:59;;;;;;;3.78;0.77;;;;;;;8.66;100.00;99554.59;5213284;28;20441;-72
2023/03/14 10:14:45;;;;;;;5.25;0.85;;;;;;;8.93;100.00;99564.13;5215177;28;20041;-73
2023/03/14 10:17:19;;;;;;;2.40;0.80;;;;;;;8.82;100.00;99579.22;5212492;28;20053;-73
2023/03/14 10:19:56;;;;;;;2.75;0.93;;;;;;;8.99;100.00;99594.06;5214373;28;20514;-73
2023/03/14 10:22:30;;;;;;;3.63;0.85;;;;;;;9.11;100.00;99612.94;5214595;28;20558;-72
2023/03/14 10:25:07;;;;;;;5.18;1.00;;;;;;;8.97;100.00;99616.88;5214323;28;20036;-73
2023/03/14 10:27:38;;;;;;;3.10;1.10;;;;;;;8.92;100.00;99633.00;5214653;28;20045;-73
2023/03/14 10:30:46;;;;;;;5.90;1.52;;;;;;;9.07;100.00;99632.50;5214205;28;20038;-73
2023/03/14 10:33:18;;;;;;;4.85;1.13;;;;;;;9.00;100.00;99651.38;5215621;28;20045;-74
2023/03/14 10:35:56;;;;;;;5.60;1.10;;;;;;;9.16;100.00;99668.16;5215092;28;20030;-74
2023/03/14 10:38:30;;;;;;;7.28;1.60;;;;;;;9.15;100.00;99664.72;5218854;28;20488;-74
2023/03/14 10:41:16;;;;;;;6.88;2.25;;;;;;;9.17;100.00;99680.28;5219328;28;20072;-73
2023/03/14 10:43:51;;;;;;;6.97;1.90;;;;;;;8.99;100.00;99678.47;5215505;28;20034;-72
2023/03/14 10:46:25;;;;;;;8.80;2.30;;;;;;;8.99;100.00;99699.38;5216944;28;20040;-73
2023/03/14 10:48:56;;;;;;;8.07;2.00;;;;;;;8.91;100.00;99698.47;5218088;28;20049;-72
2023/03/14 10:51:30;;;;;;;6.90;1.98;;;;;;;8.93;100.00;99728.69;5217542;28;20034;-73
2023/03/14 10:54:11;;;;;;;9.45;2.55;;;;;;;9.03;100.00;99739.09;5218012;28;20038;-73
2023/03/14 10:56:43;;;;;;;9.85;1.80;;;;;;;8.86;100.00;99753.75;5217220;28;20100;-72
2023/03/14 10:59:15;;;;;;;8.90;2.03;;;;;;;8.71;100.00;99773.47;5217382;28;20152;-73
2023/03/14 11:02:01;;;;;;;9.67;2.43;;;;;;;8.73;100.00;99779.38;5216363;28;20442;-73
2023/03/14 11:04:49;;;;;;;10.60;2.97;;;;;;;8.68;100.00;99785.03;5217758;28;20037;-73
2023/03/14 11:07:38;;;;;;;8.57;2.20;;;;;;;8.67;100.00;99795.63;5213624;28;20113;-72
2023/03/14 11:10:18;;;;;;;11.77;2.03;;;;;;;8.61;100.00;99799.63;5217340;28;20037;-72
2023/03/14 11:13:08;;;;;;;5.18;1.77;;;;;;;8.76;100.00;99800.81;5217394;28;20033;-73
2023/03/14 11:15:57;;;;;;;9.93;2.35;;;;;;;8.79;100.00;99818.00;5216928;28;20045;-72
2023/03/14 11:19:06;;;;;;;10.18;1.95;;;;;;;8.95;100.00;99826.03;5215930;28;20018;-72
2023/03/14 11:21:51;;;;;;;8.18;1.85;;;;;;;8.82;100.00;99832.53;5216037;28;20644;-73
2023/03/14 11:24:48;;;;;;;7.75;1.95;;;;;;;8.95;100.00;99836.47;5216570;28;20048;-73
2023/03/14 11:27:46;;;;;;;7.95;2.00;;;;;;;8.72;100.00;99837.81;5215266;28;20503;-73
2023/03/14 11:30:20;;;;;;;5.90;1.67;;;;;;;8.70;100.00;99853.59;5216813;28;20313;-73
2023/03/14 11:32:54;;;;;;;7.07;1.88;;;;;;;8.68;100.00;99860.78;5215130;28;20034;-73
2023/03/14 11:35:41;;;;;;;6.80;2.00;;;;;;;8.66;100.00;99880.97;5216926;28;20025;-73
2023/03/14 11:38:29;;;;;;;11.50;2.45;;;;;;;8.52;100.00;99903.13;5215026;28;20103;-73
2023/03/14 11:41:01;;;;;;;7.93;2.05;;;;;;;7.93;100.00;99922.34;5215474;28;20033;-73
2023/03/14 11:43:41;;;;;;;5.90;1.73;;;;;;;7.69;100.00;99933.16;5214710;28;20033;-74
2023/03/14 11:46:26;;;;;;;9.30;2.00;;;;;;;7.69;100.00;99920.09;5216717;28;20021;-74
2023/03/14 11:49:30;;;;;;;8.20;2.00;;;;;;;7.92;100.00;99920.69;5214734;28;20495;-73
2023/03/14 11:52:17;;;;;;;8.65;2.75;;;;;;;7.76;100.00;99928.19;5214885;28;20042;-73
2023/03/14 11:55:02;;;;;;;11.63;2.50;;;;;;;7.94;100.00;99933.59;5213316;28;20087;-73
2023/03/14 11:57:34;;;;;;;8.55;2.05;;;;;;;8.01;100.00;99945.13;5214392;28;20038;-74
2023/03/14 12:00:23;;;;;;;11.10;2.95;;;;;;;8.30;100.00;99947.75;5214969;28;20026;-74